Time;durP1;ratioP1;P1;durP2;ratioP2;P2;SDS_P1;SDS_P2;PMS_P1;PMS_P2;Temp;Humidity;BMP_temperature;BMP_pressure;BME280_temperature;BME280_humidity;BME280_pressure;Samples;Min_cycle;Max_cycle;Signal;HPM_P1;HPM_P2
2022/08/06 00:02:24;;;;;;;36.97;14.02;;;;;;;21.13;67.66;100227.66;5041484;28;20049;-74
2022/08/06 00:04:59;;;;;;;43.22;15.32;;;;;;;21.32;67.69;100251.72;5047798;28;20060;-74
2022/08/06 00:07:27;;;;;;;38.40;14.00;;;;;;;21.27;67.62;100244.31;5045637;28;20405;-74
2022/08/06 00:10:18;;;;;;;35.53;14.00;;;;;;;21.27;67.65;100238.63;5058710;28;20048;-74
2022/08/06 00:12:55;;;;;;;43.67;14.75;;;;;;;21.21;67.24;100223.84;5043285;28;20057;-73
2022/08/06 00:15:22;;;;;;;42.53;16.08;;;;;;;21.35;67.33;100245.38;5039591;28;20612;-74
2022/08/06 00:18:08;;;;;;;36.33;14.43;;;;;;;21.21;67.14;100217.34;5042105;28;20045;-73
2022/08/06 00:20:37;;;;;;;45.20;15.50;;;;;;;21.04;67.41;100213.59;5046996;28;20136;-74
2022/08/06 00:23:07;;;;;;;48.85;16.77;;;;;;;21.01;67.43;100220.00;5022819;28;20060;-74
2022/08/06 00:25:46;;;;;;;41.00;15.35;;;;;;;21.18;67.94;100223.75;5050363;28;20056;-74
2022/08/06 00:28:23;;;;;;;47.47;15.95;;;;;;;21.08;67.85;100201.53;5035788;28;20129;-75
2022/08/06 00:31:01;;;;;;;45.33;18.27;;;;;;;20.99;67.68;100191.16;5044024;28;20093;-73
2022/08/06 00:33:38;;;;;;;41.25;16.17;;;;;;;21.21;67.98;100223.84;5049385;28;20084;-73
2022/08/06 00:36:17;;;;;;;41.83;15.63;;;;;;;21.26;67.74;100225.59;5039896;28;20045;-73
2022/08/06 00:38:51;;;;;;;35.75;13.52;;;;;;;21.35;67.96;100225.47;5045408;28;20052;-74
2022/08/06 00:41:19;;;;;;;35.40;15.30;;;;;;;21.28;68.12;100201.31;5044314;28;20916;-73
2022/08/06 00:43:48;;;;;;;40.22;14.50;;;;;;;21.34;68.20;100209.59;5051924;28;20052;-73
2022/08/06 00:46:15;;;;;;;49.08;16.80;;;;;;;21.44;68.02;100218.47;5044773;28;20096;-74
2022/08/06 00:48:43;;;;;;;45.03;16.77;;;;;;;21.50;68.20;100214.19;5051336;28;20052;-75
2022/08/06 00:51:22;;;;;;;39.78;15.75;;;;;;;21.16;68.38;100186.34;5056295;28;20417;-74
2022/08/06 00:53:52;;;;;;;35.92;14.20;;;;;;;21.13;68.46;100195.59;5058719;28;20080;-75
2022/08/06 00:56:24;;;;;;;38.50;14.68;;;;;;;21.16;68.46;100212.75;5044259;28;20406;-74
2022/08/06 00:58:55;;;;;;;42.00;15.13;;;;;;;21.03;68.35;100211.97;5051494;28;20045;-74
2022/08/06 01:01:26;;;;;;;39.85;15.32;;;;;;;21.11;68.42;100217.84;5049602;28;20099;-74
2022/08/06 01:03:58;;;;;;;43.75;14.45;;;;;;;21.04;68.30;100205.09;5048691;28;20064;-74
2022/08/06 01:06:51;;;;;;;34.30;13.98;;;;;;;20.94;68.51;100211.28;5051486;28;20045;-74
2022/08/06 01:09:25;;;;;;;39.60;14.93;;;;;;;20.87;68.78;100190.38;5034061;28;20080;-73
2022/08/06 01:11:57;;;;;;;35.00;14.20;;;;;;;20.87;68.77;100190.38;5041443;28;20049;-74
2022/08/06 01:14:26;;;;;;;36.25;13.88;;;;;;;20.94;68.63;100202.75;5040401;28;20085;-74
2022/08/06 01:17:17;;;;;;;41.00;14.88;;;;;;;20.75;68.97;100155.16;5046911;28;20124;-75
2022/08/06 01:20:08;;;;;;;36.50;14.90;;;;;;;20.88;69.17;100187.16;5049401;28;20052;-74
2022/08/06 01:22:58;;;;;;;36.28;14.02;;;;;;;21.06;68.84;100207.59;5044074;28;20052;-75
2022/08/06 01:25:53;;;;;;;37.88;14.70;;;;;;;21.06;69.01;100210.41;5047443;28;20049;-74
2022/08/06 01:28:37;;;;;;;35.22;13.88;;;;;;;20.95;68.85;100189.38;5048083;28;20044;-74
2022/08/06 01:31:14;;;;;;;38.10;14.65;;;;;;;20.90;68.79;100189.66;5045839;28;20402;-75
2022/08/06 01:33:47;;;;;;;34.35;13.93;;;;;;;21.00;68.88;100195.66;5045882;28;20131;-75
2022/08/06 01:36:27;;;;;;;30.80;13.73;;;;;;;20.85;68.65;100187.88;5050399;28;20041;-74
2022/08/06 01:38:58;;;;;;;32.85;13.98;;;;;;;20.85;69.04;100182.19;5045787;28;20095;-74
2022/08/06 01:41:50;;;;;;;38.55;13.30;;;;;;;20.69;68.89;100159.44;5049297;28;20097;-74
2022/08/06 01:44:37;;;;;;;39.10;15.60;;;;;;;20.92;68.90;100199.47;5049825;28;20116;-74
2022/08/06 01:47:08;;;;;;;45.28;15.10;;;;;;;20.85;69.13;100189.88;5048248;28;20045;-74
2022/08/06 01:49:47;;;;;;;37.85;15.80;;;;;;;20.96;69.29;100206.06;5052266;28;20565;-75
2022/08/06 01:52:35;;;;;;;35.30;13.75;;;;;;;21.02;69.51;100207.44;5052844;28;20111;-75
2022/08/06 01:55:08;;;;;;;35.42;14.23;;;;;;;20.98;69.64;100195.16;5051896;28;20440;-75
2022/08/06 01:57:43;;;;;;;45.10;13.75;;;;;;;21.14;69.69;100200.09;5048006;28;20056;-74
2022/08/06 02:00:32;;;;;;;38.38;13.68;;;;;;;21.13;69.34;100181.38;5051402;28;20082;-75
2022/08/06 02:03:03;;;;;;;33.08;13.75;;;;;;;21.19;69.23;100185.63;5040721;28;20046;-75
2022/08/06 02:05:31;;;;;;;38.70;14.13;;;;;;;21.36;69.07;100195.88;5053052;28;20102;-75
2022/08/06 02:08:15;;;;;;;34.20;14.00;;;;;;;21.37;69.22;100198.38;5051516;28;20061;-75
2022/08/06 02:11:05;;;;;;;32.42;14.15;;;;;;;21.27;68.85;100171.28;5049677;28;20045;-75
2022/08/06 02:13:55;;;;;;;40.90;12.52;;;;;;;21.41;68.95;100190.78;5037457;28;20060;-74
2022/08/06 02:16:24;;;;;;;36.33;13.23;;;;;;;21.46;68.89;100196.19;5043509;28;20135;-75
2022/08/06 02:18:54;;;;;;;33.75;14.05;;;;;;;21.10;68.37;100137.53;5052554;28;20080;-74
2022/08/06 02:21:22;;;;;;;38.05;14.57;;;;;;;21.08;68.69;100133.41;5052511;28;20140;-75
2022/08/06 02:24:02;;;;;;;35.38;14.45;;;;;;;21.33;68.79;100191.72;5049709;28;20416;-74
2022/08/06 02:26:31;;;;;;;37.10;13.27;;;;;;;21.27;68.73;100181.81;5038021;28;20056;-75
2022/08/06 02:29:01;;;;;;;47.13;13.07;;;;;;;21.29;68.65;100173.75;5048070;28;20049;-74
2022/08/06 02:31:28;;;;;;;29.13;11.57;;;;;;;21.20;68.88;100170.25;5043963;28;20080;-74
2022/08/06 02:34:15;;;;;;;29.02;11.55;;;;;;;21.31;68.60;100188.44;5052185;28;20049;-74
2022/08/06 02:36:46;;;;;;;30.33;11.88;;;;;;;21.34;68.79;100192.56;5052115;28;20128;-74
2022/08/06 02:39:26;;;;;;;27.35;10.57;;;;;;;21.21;68.63;100174.75;5052748;28;20057;-75
2022/08/06 02:42:25;;;;;;;92.25;12.48;;;;;;;21.33;68.44;100190.88;5050667;28;20131;-75
2022/08/06 02:45:17;;;;;;;26.83;9.90;;;;;;;21.38;68.57;100202.03;5042421;28;20056;-75
2022/08/06 02:48:01;;;;;;;23.67;9.30;;;;;;;21.18;68.82;100173.44;5046727;28;20497;-74
2022/08/06 02:50:35;;;;;;;23.45;9.18;;;;;;;21.40;69.03;100193.97;5045984;28;20077;-75
2022/08/06 02:53:13;;;;;;;28.17;9.05;;;;;;;21.36;68.71;100210.91;5042717;28;20045;-74
2022/08/06 02:55:55;;;;;;;52.53;10.88;;;;;;;21.12;68.85;100179.75;5045401;28;20041;-74
2022/08/06 02:58:33;;;;;;;30.33;10.48;;;;;;;21.15;68.87;100207.41;5045623;28;20087;-75
2022/08/06 03:01:08;;;;;;;25.63;10.65;;;;;;;21.02;68.67;100204.59;5040162;28;20144;-74
2022/08/06 03:03:38;;;;;;;27.20;9.93;;;;;;;20.96;68.68;100197.56;5052132;28;20487;-75
2022/08/06 03:06:24;;;;;;;27.98;10.45;;;;;;;20.80;68.94;100177.59;5050492;28;20561;-74
2022/08/06 03:08:55;;;;;;;25.58;9.68;;;;;;;20.90;69.00;100196.16;5041605;28;20053;-75
2022/08/06 03:11:23;;;;;;;25.45;9.38;;;;;;;20.76;69.15;100190.84;5061986;28;20041;-74
2022/08/06 03:13:52;;;;;;;23.48;8.55;;;;;;;20.63;69.34;100179.91;5049662;28;20049;-74
2022/08/06 03:16:21;;;;;;;19.88;9.45;;;;;;;20.67;69.25;100190.16;5042765;28;20045;-75
2022/08/06 03:18:51;;;;;;;;;;;;;;;20.68;68.99;100205.16;5042039;28;20175;-74
2022/08/06 03:21:39;;;;;;;68.13;9.70;;;;;;;20.59;68.84;100202.47;5051748;28;19921;-73
2022/08/06 03:24:12;;;;;;;59.15;10.43;;;;;;;20.35;69.12;100160.75;5049554;28;20132;-74
2022/08/06 03:26:44;;;;;;;38.15;8.63;;;;;;;20.44;69.54;100180.47;5043249;28;20103;-74
2022/08/06 03:29:14;;;;;;;40.05;9.18;;;;;;;20.40;69.52;100194.53;5049135;28;20049;-75
2022/08/06 03:31:41;;;;;;;27.63;9.32;;;;;;;20.21;69.81;100163.16;5030223;28;20048;-75
2022/08/06 03:34:26;;;;;;;44.28;10.10;;;;;;;20.34;69.69;100184.59;5047489;28;20409;-74
2022/08/06 03:36:56;;;;;;;54.80;10.55;;;;;;;20.41;69.95;100184.00;5044402;28;20076;-74
2022/08/06 03:39:28;;;;;;;30.15;8.93;;;;;;;20.25;70.03;100161.25;5049203;28;20493;-74
2022/08/06 03:41:56;;;;;;;29.30;9.73;;;;;;;20.35;70.05;100183.44;5043386;28;20044;-74
2022/08/06 03:44:35;;;;;;;28.75;9.95;;;;;;;20.44;70.34;100180.47;5047120;28;20049;-75
2022/08/06 03:47:11;;;;;;;;;;;;;;;20.47;69.84;100180.59;5046305;28;20095;-73
2022/08/06 03:50:13;;;;;;;28.52;10.43;;;;;;;20.38;70.13;100162.06;5045033;28;19921;-75
2022/08/06 03:52:45;;;;;;;36.33;10.98;;;;;;;20.51;69.98;100181.59;5040698;28;20045;-76
2022/08/06 03:55:23;;;;;;;30.10;10.50;;;;;;;20.51;70.29;100178.75;5044987;28;20083;-75
2022/08/06 03:57:59;;;;;;;40.27;11.83;;;;;;;20.46;70.32;100178.94;5041306;28;20048;-74
2022/08/06 04:00:30;;;;;;;36.65;10.93;;;;;;;20.48;70.37;100184.28;5035663;28;20712;-74
2022/08/06 04:02:58;;;;;;;31.45;11.27;;;;;;;20.42;70.06;100177.19;5049475;28;20132;-74
2022/08/06 04:05:31;;;;;;;25.90;11.07;;;;;;;20.43;70.46;100173.97;5043629;28;20104;-75
2022/08/06 04:08:04;;;;;;;32.58;11.70;;;;;;;20.64;70.43;100192.88;5049771;28;20072;-76
2022/08/06 04:10:37;;;;;;;30.48;12.15;;;;;;;20.70;70.62;100191.47;5049262;28;20052;-76
2022/08/06 04:13:09;;;;;;;37.70;12.43;;;;;;;20.64;70.52;100187.22;5040471;28;20182;-75
2022/08/06 04:15:57;;;;;;;26.95;12.35;;;;;;;20.58;70.80;100187.47;5040080;28;20049;-76
2022/08/06 04:18:30;;;;;;;29.85;12.05;;;;;;;20.69;70.71;100190.66;5044777;28;20073;-75
2022/08/06 04:21:08;;;;;;;35.00;12.43;;;;;;;20.75;70.77;100182.69;5041187;28;20501;-75
2022/08/06 04:23:47;;;;;;;27.75;11.80;;;;;;;20.80;70.80;100180.44;5044439;28;20067;-75
2022/08/06 04:26:19;;;;;;;37.78;12.77;;;;;;;20.84;70.67;100169.19;5048675;28;20131;-75
2022/08/06 04:28:51;;;;;;;25.98;10.85;;;;;;;20.83;70.37;100167.56;5052950;28;20159;-75
2022/08/06 04:31:27;;;;;;;29.95;11.40;;;;;;;21.05;70.38;100192.53;5046634;28;20051;-75
2022/08/06 04:34:25;;;;;;;25.17;10.85;;;;;;;21.06;70.65;100202.72;5052404;28;20044;-75
2022/08/06 04:36:57;;;;;;;25.70;10.50;;;;;;;21.11;70.48;100198.78;5050971;28;20076;-75
2022/08/06 04:39:24;;;;;;;;;;;;;;;21.08;70.29;100202.34;5051414;28;20091;-75
2022/08/06 04:42:11;;;;;;;20.02;8.82;;;;;;;21.17;70.14;100208.72;5051068;28;19931;-75
2022/08/06 04:44:42;;;;;;;25.25;10.60;;;;;;;21.01;69.73;100173.75;5040594;28;20354;-75
2022/08/06 04:47:11;;;;;;;21.25;9.88;;;;;;;21.00;70.33;100194.81;5048453;28;20347;-75
2022/08/06 04:49:45;;;;;;;26.10;10.60;;;;;;;20.89;70.35;100191.66;5051149;28;20053;-75
2022/08/06 04:52:28;;;;;;;24.98;10.70;;;;;;;20.88;70.29;100177.81;5046631;28;20088;-75
2022/08/06 04:55:14;;;;;;;27.73;9.80;;;;;;;20.99;70.27;100185.47;5040505;28;20064;-75
2022/08/06 04:57:50;;;;;;;29.52;11.38;;;;;;;21.10;70.36;100194.31;5035408;28;20072;-75
2022/08/06 05:00:28;;;;;;;28.15;10.18;;;;;;;21.18;70.10;100204.69;5048557;28;20103;-75
2022/08/06 05:03:15;;;;;;;28.92;11.05;;;;;;;20.99;69.98;100182.66;5050601;28;20059;-75
2022/08/06 05:05:54;;;;;;;27.17;11.02;;;;;;;21.06;69.80;100199.88;5048058;28;20257;-75
2022/08/06 05:08:26;;;;;;;23.95;11.00;;;;;;;20.84;70.01;100177.72;5049500;28;20037;-75
2022/08/06 05:11:00;;;;;;;25.42;10.27;;;;;;;20.91;69.98;100189.28;5038551;28;20131;-76
2022/08/06 05:13:33;;;;;;;28.70;9.95;;;;;;;20.78;70.11;100174.28;5047989;28;20107;-75
2022/08/06 05:16:09;;;;;;;23.50;10.52;;;;;;;20.93;70.26;100186.09;5034905;28;20049;-75
2022/08/06 05:18:41;;;;;;;24.83;10.55;;;;;;;21.04;69.91;100192.91;5038233;28;20057;-74
2022/08/06 05:21:36;;;;;;;23.83;9.88;;;;;;;21.03;69.97;100202.63;5048710;28;20048;-74
2022/08/06 05:24:23;;;;;;;21.48;8.93;;;;;;;21.05;69.78;100208.75;5047132;28;20052;-75
2022/08/06 05:27:10;;;;;;;26.25;9.32;;;;;;;21.15;70.01;100213.09;5043711;28;20410;-75
2022/08/06 05:29:39;;;;;;;28.00;10.27;;;;;;;21.13;69.74;100221.13;5050077;28;20497;-75
2022/08/06 05:32:18;;;;;;;27.83;9.95;;;;;;;20.91;70.07;100200.63;5048632;28;20045;-75
2022/08/06 05:34:51;;;;;;;26.88;11.63;;;;;;;20.99;70.26;100208.19;5043059;28;20049;-75
2022/08/06 05:37:19;;;;;;;28.08;10.93;;;;;;;20.99;70.08;100210.19;5043281;28;20045;-74
2022/08/06 05:40:08;;;;;;;23.08;10.00;;;;;;;21.12;70.53;100216.66;5045657;28;20129;-75
2022/08/06 05:42:37;;;;;;;25.58;11.38;;;;;;;20.78;70.32;100177.13;5048223;28;20514;-74
2022/08/06 05:45:09;;;;;;;26.08;10.30;;;;;;;21.11;70.18;100229.22;5049024;28;20064;-74
2022/08/06 05:47:39;;;;;;;24.40;9.07;;;;;;;21.01;70.21;100224.84;5051032;28;20485;-76
2022/08/06 05:50:28;;;;;;;31.98;10.35;;;;;;;20.80;69.99;100208.00;5045555;28;20045;-76
2022/08/06 05:53:08;;;;;;;26.38;10.25;;;;;;;20.87;69.87;100225.25;5048371;28;20056;-77
2022/08/06 05:55:39;;;;;;;33.67;10.60;;;;;;;20.75;70.42;100228.09;5045816;28;20517;-73
2022/08/06 05:58:12;;;;;;;39.50;10.50;;;;;;;20.76;70.44;100241.13;5044164;28;20473;-74
2022/08/06 06:00:41;;;;;;;32.33;10.65;;;;;;;20.66;70.66;100235.94;5049878;28;20142;-78
2022/08/06 06:03:15;;;;;;;39.08;10.82;;;;;;;20.69;70.34;100246.56;5047646;28;20049;-77
2022/08/06 06:05:55;;;;;;;37.75;11.00;;;;;;;20.70;70.53;100242.53;5041954;28;20049;-74
2022/08/06 06:08:43;;;;;;;32.10;11.35;;;;;;;20.30;70.46;100190.16;5041101;28;20067;-74
2022/08/06 06:11:26;;;;;;;27.10;11.13;;;;;;;20.74;70.80;100249.16;5039801;28;20281;-76
2022/08/06 06:14:37;;;;;;;27.75;11.57;;;;;;;20.75;70.61;100253.63;5044590;28;20053;-75
2022/08/06 06:17:44;;;;;;;29.38;11.90;;;;;;;20.79;70.74;100257.44;5034189;28;20115;-73
2022/08/06 06:20:40;;;;;;;37.47;12.10;;;;;;;20.80;70.82;100264.75;5044153;28;20088;-79
2022/08/06 06:23:38;;;;;;;37.78;11.30;;;;;;;20.68;70.94;100267.59;5050231;28;20060;-73
2022/08/06 06:26:24;;;;;;;40.17;10.95;;;;;;;20.75;70.74;100268.69;5046181;28;20060;-75
2022/08/06 06:29:17;;;;;;;64.77;12.73;;;;;;;20.72;70.57;100263.72;5040850;28;20163;-72
2022/08/06 06:32:48;;;;;;;34.33;11.57;;;;;;;20.62;70.44;100252.84;5039320;28;20053;-86
2022/08/06 06:35:30;;;;;;;28.83;11.88;;;;;;;20.74;70.73;100266.19;5049250;28;20068;-76
2022/08/06 06:38:30;;;;;;;30.98;10.88;;;;;;;20.52;70.69;100228.59;5045593;28;20042;-83
2022/08/06 06:41:24;;;;;;;28.08;10.75;;;;;;;20.68;71.04;100268.41;5045294;28;20406;-79
2022/08/06 06:44:18;;;;;;;28.75;10.85;;;;;;;20.64;70.91;100272.34;5039133;28;20137;-73
2022/08/06 06:47:15;;;;;;;33.58;11.35;;;;;;;20.56;70.66;100263.59;5036424;28;20436;-73
2022/08/06 06:49:59;;;;;;;30.95;10.73;;;;;;;20.23;70.92;100211.78;5042851;28;20044;-75
2022/08/06 06:52:34;;;;;;;25.73;10.70;;;;;;;20.58;70.88;100260.38;5038897;28;20250;-72
2022/08/06 06:55:11;;;;;;;29.48;11.32;;;;;;;20.55;71.19;100258.28;5044193;28;20081;-73
2022/08/06 06:57:50;;;;;;;27.73;10.45;;;;;;;20.65;71.32;100262.63;5043908;28;20636;-78
2022/08/06 07:00:18;;;;;;;27.67;11.40;;;;;;;20.68;71.21;100257.06;5039840;28;20057;-73
2022/08/06 07:03:07;;;;;;;28.33;11.60;;;;;;;20.68;71.12;100259.06;5044957;28;20512;-77
2022/08/06 07:05:38;;;;;;;29.27;11.13;;;;;;;20.79;71.14;100278.13;5043732;28;20045;-72
2022/08/06 07:08:26;;;;;;;26.60;10.90;;;;;;;20.86;71.13;100285.22;5042431;28;20045;-74
2022/08/06 07:11:05;;;;;;;32.97;13.35;;;;;;;20.67;70.87;100243.25;5046426;28;20204;-77
2022/08/06 07:13:34;;;;;;;29.98;12.70;;;;;;;20.73;71.19;100254.00;5035070;28;20614;-78
2022/08/06 07:16:18;;;;;;;40.83;17.90;;;;;;;20.84;71.37;100254.34;5057605;28;20160;-73
2022/08/06 07:19:04;;;;;;;37.78;13.80;;;;;;;21.14;70.95;100283.25;5033788;28;20049;-74
2022/08/06 07:21:39;;;;;;;24.05;11.93;;;;;;;21.08;70.92;100276.16;5035852;28;20056;-71
2022/08/06 07:24:17;;;;;;;29.42;12.55;;;;;;;21.14;71.24;100279.59;5040353;28;20128;-70
2022/08/06 07:27:05;;;;;;;30.13;12.48;;;;;;;21.33;71.25;100293.97;5039629;28;20148;-70
2022/08/06 07:29:33;;;;;;;27.40;12.82;;;;;;;21.26;71.18;100276.72;5043303;28;20068;-71
2022/08/06 07:32:21;;;;;;;27.05;12.95;;;;;;;21.39;70.81;100286.88;5038023;28;20395;-71
2022/08/06 07:34:59;;;;;;;27.00;12.95;;;;;;;21.55;70.73;100303.19;5047176;28;20071;-72
2022/08/06 07:37:52;;;;;;;26.42;12.15;;;;;;;21.46;70.94;100294.78;5042294;28;20072;-70
2022/08/06 07:40:26;;;;;;;28.98;12.90;;;;;;;21.52;70.82;100294.16;5041420;28;20464;-70
2022/08/06 07:43:11;;;;;;;30.00;13.18;;;;;;;21.53;70.45;100287.28;5039072;28;20053;-74
2022/08/06 07:45:53;;;;;;;37.10;14.27;;;;;;;21.58;70.49;100285.41;5040639;28;20528;-72
2022/08/06 07:48:30;;;;;;;22.40;13.02;;;;;;;21.61;70.32;100304.56;5059198;28;20053;-73
2022/08/06 07:51:00;;;;;;;27.30;12.65;;;;;;;21.60;70.11;100302.91;5042607;28;20150;-73
2022/08/06 07:53:32;;;;;;;27.38;12.27;;;;;;;21.62;69.77;100309.06;5040048;28;20072;-70
2022/08/06 07:56:19;;;;;;;29.05;13.02;;;;;;;21.60;69.83;100306.56;5039675;28;20148;-70
2022/08/06 07:58:46;;;;;;;29.77;12.93;;;;;;;21.63;69.76;100313.56;5033163;28;20095;-71
2022/08/06 08:01:14;;;;;;;32.17;14.75;;;;;;;21.65;70.08;100308.34;5040484;28;20139;-72
2022/08/06 08:06:58;;;;;;;28.08;13.27;;;;;;;21.74;69.71;100298.47;5043393;28;20413;-71
2022/08/06 08:09:26;;;;;;;27.67;12.95;;;;;;;21.73;69.82;100295.97;5037409;28;20153;-73
2022/08/06 08:12:17;;;;;;;35.50;12.68;;;;;;;21.67;69.36;100294.59;5039055;28;20531;-73
2022/08/06 08:15:08;;;;;;;32.15;14.55;;;;;;;21.83;69.60;100321.03;5034589;28;20049;-71
2022/08/06 08:17:48;;;;;;;28.45;13.07;;;;;;;21.88;69.14;100317.97;5031020;28;20045;-69
2022/08/06 08:20:26;;;;;;;30.85;12.98;;;;;;;21.92;68.84;100303.84;5036517;28;20083;-71
2022/08/06 08:23:04;;;;;;;25.35;12.50;;;;;;;22.00;69.17;100317.88;5032468;28;20056;-71
2022/08/06 08:25:32;;;;;;;33.20;13.48;;;;;;;22.22;68.37;100329.84;5036115;28;20688;-71
2022/08/06 08:28:10;;;;;;;25.95;12.15;;;;;;;22.29;68.39;100341.47;5045681;28;20495;-71
2022/08/06 08:30:42;;;;;;;;;;;;;;;22.37;68.52;100336.78;5030417;28;20061;-71
2022/08/06 08:33:09;;;;;;;23.10;10.15;;;;;;;22.47;68.44;100345.59;5037408;28;19947;-71
2022/08/06 08:35:46;;;;;;;24.90;12.25;;;;;;;22.42;68.11;100311.72;5048689;28;20057;-71
2022/08/06 08:38:30;;;;;;;23.00;11.60;;;;;;;22.56;68.04;100328.31;5047217;28;20524;-72
2022/08/06 08:41:02;;;;;;;21.90;11.25;;;;;;;22.57;67.57;100332.03;5052666;28;20053;-71
2022/08/06 08:43:35;;;;;;;17.10;9.23;;;;;;;22.58;67.44;100322.28;5038592;28;20144;-71
2022/08/06 08:46:24;;;;;;;22.27;10.02;;;;;;;22.35;67.21;100287.94;5049981;28;20493;-71
2022/08/06 08:49:00;;;;;;;22.23;11.15;;;;;;;22.59;67.35;100335.31;5038569;28;20057;-72
2022/08/06 08:51:28;;;;;;;21.40;9.85;;;;;;;22.55;67.35;100317.31;5045202;28;20048;-72
2022/08/06 08:54:05;;;;;;;19.50;9.88;;;;;;;22.48;66.55;100313.09;5054921;28;20044;-72
2022/08/06 08:56:35;;;;;;;20.85;10.73;;;;;;;22.48;66.75;100300.88;5046677;28;20048;-71
2022/08/06 08:59:22;;;;;;;18.95;9.68;;;;;;;22.78;66.91;100332.56;5039954;28;20517;-71
2022/08/06 09:02:16;;;;;;;18.20;10.98;;;;;;;22.86;66.75;100340.06;5046208;28;20399;-71
2022/08/06 09:04:44;;;;;;;19.75;10.57;;;;;;;22.78;66.64;100326.84;5036473;28;20064;-71
2022/08/06 09:07:12;;;;;;;20.67;10.80;;;;;;;22.86;66.58;100330.69;5047659;28;20069;-71
2022/08/06 09:09:51;;;;;;;17.40;10.90;;;;;;;22.84;66.64;100307.47;5047537;28;20494;-72
2022/08/06 09:12:27;;;;;;;18.95;10.82;;;;;;;23.17;65.96;100318.44;5053328;28;20049;-72
2022/08/06 09:15:02;;;;;;;20.40;10.45;;;;;;;23.74;65.51;100339.69;5045976;28;20048;-71
2022/08/06 09:17:32;;;;;;;19.60;10.25;;;;;;;24.29;64.61;100351.78;5050927;28;20072;-71
2022/08/06 09:20:20;;;;;;;20.25;10.85;;;;;;;24.63;63.68;100326.34;5049567;28;20053;-71
2022/08/06 09:22:50;;;;;;;17.70;10.27;;;;;;;25.20;62.78;100329.31;5048483;28;20081;-70
2022/08/06 09:25:39;;;;;;;13.82;9.32;;;;;;;25.73;61.92;100332.91;5053791;28;20437;-71
2022/08/06 09:28:38;;;;;;;19.02;10.48;;;;;;;26.54;60.49;100365.78;5043489;28;21295;-71
2022/08/06 09:31:07;;;;;;;19.02;10.77;;;;;;;26.77;58.95;100339.81;5052955;28;20055;-71
2022/08/06 09:34:02;;;;;;;17.17;11.18;;;;;;;27.27;58.04;100356.56;5053540;28;20464;-70
2022/08/06 09:36:50;;;;;;;15.80;9.73;;;;;;;27.63;57.03;100331.81;5047787;28;20417;-70
2022/08/06 09:39:31;;;;;;;15.40;9.32;;;;;;;28.28;56.33;100358.72;5052967;28;20071;-70
2022/08/06 09:42:36;;;;;;;17.58;9.15;;;;;;;28.44;56.15;100364.09;5055273;28;20053;-70
2022/08/06 09:45:23;;;;;;;19.73;9.77;;;;;;;28.30;55.00;100371.44;5051140;28;20051;-70
2022/08/06 09:48:09;;;;;;;18.33;10.75;;;;;;;28.11;53.80;100369.75;5050928;28;20049;-69
2022/08/06 09:50:48;;;;;;;15.20;9.65;;;;;;;28.36;53.78;100389.09;5054501;28;20055;-70
2022/08/06 09:53:22;;;;;;;22.20;9.65;;;;;;;28.42;52.91;100366.59;5050077;28;20097;-70
2022/08/06 09:55:51;;;;;;;19.83;9.82;;;;;;;28.34;52.71;100328.34;5052992;28;20501;-71
2022/08/06 09:58:28;;;;;;;17.48;8.85;;;;;;;28.78;52.71;100370.31;5049254;28;20145;-70
2022/08/06 10:01:11;;;;;;;15.30;9.43;;;;;;;28.74;52.52;100366.63;5040324;28;20409;-70
2022/08/06 10:03:55;;;;;;;18.13;9.90;;;;;;;28.70;52.19;100368.66;5052284;28;20052;-70
2022/08/06 10:06:33;;;;;;;20.48;11.32;;;;;;;28.50;51.70;100348.94;5045452;28;20049;-70
2022/08/06 10:09:12;;;;;;;14.82;8.85;;;;;;;28.45;51.58;100360.03;5050204;28;20578;-69
2022/08/06 10:11:59;;;;;;;18.42;10.63;;;;;;;28.72;51.23;100375.66;5064313;28;20052;-70
2022/08/06 10:14:31;;;;;;;15.20;9.13;;;;;;;29.09;51.06;100367.88;5055844;28;20049;-71
2022/08/06 10:17:05;;;;;;;17.35;9.38;;;;;;;29.45;50.03;100374.41;5055123;28;20049;-70
2022/08/06 10:19:35;;;;;;;15.63;8.18;;;;;;;29.72;49.59;100369.03;5055583;28;20055;-71
2022/08/06 10:22:08;;;;;;;19.15;9.30;;;;;;;30.02;49.55;100382.06;5070148;28;20481;-70
2022/08/06 10:24:48;;;;;;;17.00;9.35;;;;;;;29.86;48.64;100371.03;5054901;28;20057;-71
2022/08/06 10:27:28;;;;;;;18.33;9.23;;;;;;;29.62;48.61;100339.03;5054233;28;20061;-71
2022/08/06 10:30:06;;;;;;;16.35;9.30;;;;;;;30.32;48.03;100391.00;5048447;28;20108;-71
2022/08/06 10:32:43;;;;;;;21.45;11.07;;;;;;;30.23;47.52;100389.84;5051643;28;20137;-71
2022/08/06 10:35:14;;;;;;;15.48;9.45;;;;;;;29.88;48.39;100372.28;5052209;28;20092;-69
2022/08/06 10:37:49;;;;;;;17.08;9.43;;;;;;;29.91;48.07;100391.56;5049592;28;20075;-70
2022/08/06 10:40:19;;;;;;;20.00;9.55;;;;;;;29.85;47.93;100375.97;5050706;28;20048;-71
2022/08/06 10:43:00;;;;;;;19.73;10.77;;;;;;;30.31;47.89;100403.75;5045162;28;20076;-72
2022/08/06 10:45:30;;;;;;;15.32;9.05;;;;;;;30.42;47.49;100398.75;5050299;28;20052;-71
2022/08/06 10:48:16;;;;;;;18.27;8.25;;;;;;;29.84;47.44;100397.34;5044796;28;20041;-72
2022/08/06 10:51:04;;;;;;;17.80;9.07;;;;;;;29.51;48.54;100402.34;5049460;28;20060;-71
2022/08/06 10:53:37;;;;;;;20.42;10.57;;;;;;;28.79;48.53;100390.03;5046352;28;20049;-71
2022/08/06 10:56:26;;;;;;;15.27;8.68;;;;;;;28.50;49.92;100412.13;5048353;28;20053;-70
2022/08/06 10:59:05;;;;;;;14.40;7.47;;;;;;;28.78;49.27;100399.88;5044902;28;20049;-71
2022/08/06 11:01:31;;;;;;;;;;;;;;;28.21;50.22;100410.41;5038718;28;20069;-71
2022/08/06 11:04:48;;;;;;;19.77;9.65;;;;;;;27.93;50.56;100403.28;5044987;28;19991;-71
2022/08/06 11:07:33;;;;;;;17.02;9.63;;;;;;;28.01;50.18;100404.97;5036777;28;20854;-71
2022/08/06 11:10:23;;;;;;;21.30;9.82;;;;;;;27.69;50.50;100399.03;5033934;28;20076;-72
2022/08/06 11:12:59;;;;;;;15.90;8.80;;;;;;;27.68;50.79;100390.84;5033382;28;20068;-69
2022/08/06 11:15:27;;;;;;;21.35;10.20;;;;;;;27.64;50.99;100399.41;5041129;28;20148;-69
2022/08/06 11:18:07;;;;;;;18.73;9.63;;;;;;;27.34;50.72;100323.03;5043914;28;20045;-70
2022/08/06 11:20:43;;;;;;;14.43;7.68;;;;;;;27.63;51.28;100397.78;5043016;28;20060;-70
2022/08/06 11:23:12;;;;;;;17.98;8.80;;;;;;;27.39;51.68;100411.56;5041784;28;20064;-70
2022/08/06 11:26:01;;;;;;;15.77;8.35;;;;;;;27.33;51.83;100395.13;5038643;28;20559;-71
2022/08/06 11:28:33;;;;;;;21.85;8.43;;;;;;;27.30;52.03;100405.34;5034899;28;20060;-71
2022/08/06 11:31:02;;;;;;;21.90;9.82;;;;;;;27.22;51.80;100391.38;5039828;28;20053;-72
2022/08/06 11:33:32;;;;;;;17.95;8.68;;;;;;;27.47;51.87;100400.94;5043924;28;20077;-75
2022/08/06 11:36:04;;;;;;;18.17;9.02;;;;;;;27.52;51.47;100414.09;5042734;28;20111;-75
2022/08/06 11:38:51;;;;;;;15.50;8.65;;;;;;;27.36;51.64;100411.53;5043900;28;20084;-79
2022/08/06 11:41:25;;;;;;;20.27;10.32;;;;;;;26.96;51.93;100404.63;5039689;28;20049;-81
2022/08/06 11:44:15;;;;;;;17.20;9.45;;;;;;;26.55;53.01;100380.91;5039965;28;20052;-75
2022/08/06 11:46:45;;;;;;;18.20;10.10;;;;;;;26.68;52.76;100405.19;5043329;28;20053;-76
2022/08/06 11:49:23;;;;;;;15.63;8.70;;;;;;;26.84;53.06;100373.44;5045683;28;20110;-82
2022/08/06 11:51:51;;;;;;;15.60;9.05;;;;;;;27.27;52.16;100413.91;5047840;28;20059;-78
2022/08/06 11:54:34;;;;;;;19.08;9.68;;;;;;;27.46;51.87;100407.91;5047618;28;20053;-80
2022/08/06 11:57:01;;;;;;;15.27;9.43;;;;;;;27.22;52.04;100408.56;5042844;28;20119;-72
2022/08/06 11:59:36;;;;;;;16.15;8.70;;;;;;;27.51;51.82;100406.72;5038326;28;20535;-73
2022/08/06 12:02:12;;;;;;;17.00;9.50;;;;;;;27.74;51.76;100383.50;5036928;28;20136;-72
2022/08/06 12:04:44;;;;;;;15.98;8.25;;;;;;;27.86;51.28;100363.91;5041136;28;20060;-73
2022/08/06 12:07:27;;;;;;;17.55;9.15;;;;;;;28.08;51.20;100402.13;5036348;28;20057;-72